Weather History for Holland, MI

Change the Weather History Date:

Tuesday, February 19, 2013

  Actual Average Record
Temperature  
Mean Temperature 32 °F 29 °F  
Max Temperature 45 °F 36 °F 59 °F (1954)
Min Temperature 19 °F 22 °F -12 °F (1978)
Degree Days  
Heating Degree Days 33 36  
Month to date heating degree days 764 716  
Since 1 July heating degree days 3940 4190  
Cooling Degree Days 0 0  
Month to date cooling degree days 0 0  
Year to date cooling degree days 0 0  
Moisture  
Dew Point 17 °F    
Average Humidity 81    
Maximum Humidity 100    
Minimum Humidity 62    
Precipitation  
Precipitation 0.11 in 0.08 in 0.70 in (1951)
Month to date precipitation 1.82 1.11  
Year to date precipitation 4.98 3.20  
Sea Level Pressure  
Sea Level Pressure 29.78 in    
Wind  
Wind Speed 19 mph (West)    
Max Wind Speed 32 mph    
Max Gust Speed 40 mph    
Visibility 2 miles    
Events Rain , Snow    
T = Trace of Precipitation, MM = Missing Value Source: NWS Daily Summary

Daily Weather History Graph

Daily Weather History Graph

Search for Another Location

Airport:

Trip Planner

Search our weather history database for the weather conditions in past years. The results will help you decide how hot, cold, wet, or windy it might be!

Date:

Astronomy

Feb. 19, 2013 Rise Set
Actual Time 7:35 AM EST 6:21 PM EST
Civil Twilight 7:06 AM EST 6:50 PM EST
Nautical Twilight 6:33 AM EST 7:23 PM EST
Astronomical Twilight 6:01 AM EST 7:56 PM EST
Moon 12:48 PM EST (2/19) 3:10 AM EST (2/19)
Length of Visible Light 11h 43m
Length of Day
10h 46m
Waxing Gibbous, 67% of the Moon is Illuminated
Feb 19
Waxing Gibbous
Feb 25
Full
Mar 4
Last Quarter
Mar 11
New
Mar 19
First Quarter

Hourly Weather History & Observations

Time (EST) Temp. Windchill Dew Point Humidity Pressure Visibility Wind Dir Wind Speed Gust Speed Precip Events Conditions
12:21 AM 44.6 °F 36.6 °F 42.8 °F 93% 29.39 in 6.0 mi South 19.6 mph 29.9 mph 0.02 in Rain Light Rain
12:53 AM 45.0 °F 36.9 °F 42.1 °F 90% 29.39 in 10.0 mi South 20.7 mph 27.6 mph 0.04 in Rain Light Rain
1:06 AM 44.6 °F 35.1 °F 42.8 °F 93% 29.39 in 8.0 mi SW 27.6 mph 35.7 mph 0.01 in Rain Light Rain
1:11 AM 42.8 °F 32.5 °F 42.8 °F 100% 29.40 in 9.0 mi WSW 28.8 mph 35.7 mph 0.01 in Rain Light Rain
1:18 AM 39.2 °F 28.5 °F 39.2 °F 100% 29.40 in 7.0 mi WSW 24.2 mph 35.7 mph 0.01 in Rain Light Rain
1:53 AM 37.9 °F 28.9 °F 37.9 °F 100% 29.44 in 6.0 mi West 16.1 mph 27.6 mph 0.03 in Rain Light Rain
2:53 AM 37.0 °F 26.2 °F - N/A% 29.47 in 8.0 mi West 21.9 mph 32.2 mph 0.01 in   Overcast
3:32 AM 37.4 °F 27.2 °F - N/A% 29.47 in 10.0 mi West 19.6 mph 33.4 mph N/A   Overcast
3:53 AM 36.0 °F 25.0 °F 35.1 °F 97% 29.50 in 10.0 mi West 20.7 mph 28.8 mph N/A   Overcast
4:53 AM 33.1 °F 20.3 °F 30.0 °F 89% 29.54 in 7.0 mi WSW 24.2 mph 36.8 mph N/A   Overcast
5:12 AM 32.0 °F 18.6 °F 30.2 °F 93% 29.53 in 5.0 mi WSW 25.3 mph 35.7 mph 0.00 in Rain Light Freezing Rain
5:42 AM 30.2 °F 16.8 °F 26.6 °F 86% 29.54 in 7.0 mi WSW 23.0 mph 36.8 mph 0.00 in Rain Light Freezing Rain
5:53 AM 30.0 °F 16.6 °F 26.1 °F 85% 29.57 in 6.0 mi WSW 23.0 mph 34.5 mph 0.00 in Rain Light Freezing Rain
6:53 AM 28.0 °F 14.6 °F 23.0 °F 81% 29.59 in 10.0 mi West 20.7 mph 28.8 mph 0.00 in Snow Light Snow
7:53 AM 26.1 °F 10.7 °F 21.0 °F 81% 29.62 in 2.0 mi WSW 25.3 mph 33.4 mph 0.01 in Snow Light Snow
7:57 AM 26.6 °F 12.4 °F 21.2 °F 80% 29.61 in 1.2 mi WSW 21.9 mph 33.4 mph 0.00 in Snow Light Snow
8:08 AM 24.8 °F 9.3 °F 19.4 °F 80% 29.61 in 0.2 mi WSW 24.2 mph 32.2 mph 0.00 in Snow Heavy Snow
8:30 AM 24.8 °F 10.3 °F 19.4 °F 80% 29.62 in 0.8 mi West 20.7 mph 26.5 mph 0.00 in Snow Light Snow
8:42 AM 24.8 °F 11.1 °F 19.4 °F 80% 29.63 in 1.2 mi West 18.4 mph 26.5 mph 0.00 in Snow Light Snow
8:53 AM 25.0 °F 11.7 °F 19.0 °F 78% 29.65 in 0.8 mi West 17.3 mph 28.8 mph 0.00 in Snow Light Snow
9:25 AM 24.8 °F 9.0 °F 17.6 °F 74% 29.64 in 0.5 mi WSW 25.3 mph 32.2 mph 0.01 in Snow Snow
9:42 AM 24.8 °F 10.7 °F 17.6 °F 74% 29.65 in 0.2 mi West 19.6 mph - 0.01 in Snow Heavy Snow
9:53 AM 24.1 °F 8.7 °F 19.0 °F 81% 29.68 in 0.2 mi WSW 23.0 mph 27.6 mph 0.01 in Snow Heavy Snow
10:01 AM 24.8 °F 9.3 °F 19.4 °F 80% 29.66 in 0.2 mi West 24.2 mph 29.9 mph 0.00 in Snow Heavy Snow
10:53 AM 24.1 °F 9.4 °F 18.0 °F 77% 29.70 in 0.2 mi West 20.7 mph 33.4 mph 0.01 in Snow Heavy Snow
11:53 AM 24.1 °F 8.7 °F 18.0 °F 77% 29.73 in 0.2 mi West 23.0 mph 29.9 mph 0.00 in Snow Heavy Snow
12:58 PM 24.8 °F 10.0 °F 15.8 °F 69% 29.73 in 1.0 mi West 21.9 mph 29.9 mph 0.00 in Snow Light Snow
1:13 PM 24.8 °F 11.5 °F 15.8 °F 69% 29.74 in 1.2 mi West 17.3 mph 28.8 mph 0.00 in Snow Light Snow
1:32 PM 23.0 °F 8.7 °F 15.8 °F 74% 29.74 in 0.5 mi West 18.4 mph 27.6 mph 0.00 in Snow Snow
1:39 PM 21.2 °F 7.3 °F 17.6 °F 86% 29.74 in 0.2 mi West 16.1 mph 25.3 mph 0.00 in Snow Heavy Snow
1:53 PM 21.9 °F 7.8 °F 16.0 °F 78% 29.78 in 0.5 mi West 17.3 mph 29.9 mph 0.00 in Snow Snow
2:00 PM 21.2 °F 8.3 °F 15.8 °F 80% 29.75 in 0.2 mi West 13.8 mph 28.8 mph 0.00 in Snow Heavy Snow
2:14 PM 21.2 °F 5.6 °F 15.8 °F 80% 29.76 in 0.5 mi West 20.7 mph 31.1 mph 0.00 in Snow Snow
2:53 PM 21.9 °F 6.2 °F 16.0 °F 78% 29.80 in 0.5 mi West 21.9 mph 27.6 mph 0.00 in Snow Snow
3:06 PM 21.2 °F 6.0 °F 14.0 °F 74% 29.78 in 1.0 mi West 19.6 mph 28.8 mph 0.00 in Snow Light Snow
3:15 PM 21.2 °F 6.8 °F 14.0 °F 74% 29.79 in 1.2 mi West 17.3 mph 28.8 mph 0.00 in Snow Light Snow
3:19 PM 21.2 °F 6.4 °F 14.0 °F 74% 29.79 in 0.5 mi West 18.4 mph 28.8 mph 0.00 in Snow Snow
3:35 PM 21.2 °F 6.0 °F 12.2 °F 68% 29.80 in 1.0 mi West 19.6 mph 28.8 mph 0.00 in Snow Light Snow
3:38 PM 21.2 °F 8.3 °F 12.2 °F 68% 29.81 in 2.0 mi West 13.8 mph 28.8 mph 0.00 in Snow Light Snow
3:47 PM 21.2 °F 5.2 °F 12.2 °F 68% 29.81 in 1.8 mi West 21.9 mph 31.1 mph 0.00 in Snow Light Snow
3:48 PM 21.0 °F 5.4 °F 10.9 °F 65% 29.84 in 1.5 mi West 20.7 mph 31.1 mph 0.00 in Snow Light Snow
3:54 PM 21.2 °F 6.0 °F 12.2 °F 68% 29.82 in 0.8 mi West 19.6 mph 31.1 mph 0.00 in Snow Light Snow
4:07 PM 19.4 °F 4.5 °F 12.2 °F 74% 29.83 in 1.0 mi West 17.3 mph 26.5 mph 0.00 in Snow Light Snow
4:18 PM 19.4 °F 4.1 °F 12.2 °F 74% 29.83 in 0.5 mi WNW 18.4 mph 27.6 mph 0.00 in Snow Snow
4:26 PM 19.4 °F 4.5 °F 14.0 °F 80% 29.84 in 0.5 mi WNW 17.3 mph 28.8 mph 0.00 in Snow Snow
4:32 PM 19.4 °F 4.5 °F 12.2 °F 74% 29.84 in 1.0 mi West 17.3 mph 28.8 mph 0.00 in Snow Light Snow
4:35 PM 19.4 °F 4.5 °F 12.2 °F 74% 29.84 in 1.8 mi West 17.3 mph 26.5 mph 0.00 in Snow Light Snow
4:43 PM 19.4 °F 4.1 °F 10.4 °F 68% 29.85 in 2.0 mi West 18.4 mph 24.2 mph 0.00 in Snow Light Snow
4:47 PM 19.4 °F 4.5 °F 10.4 °F 68% 29.85 in 1.2 mi West 17.3 mph 25.3 mph 0.00 in Snow Light Snow
4:53 PM 19.9 °F 5.2 °F 12.0 °F 71% 29.88 in 0.8 mi West 17.3 mph 27.6 mph 0.00 in Snow Light Snow
5:09 PM 19.4 °F 5.5 °F 12.2 °F 74% 29.86 in 1.0 mi West 15.0 mph 23.0 mph 0.00 in Snow Light Snow
5:36 PM 19.4 °F 5.5 °F 12.2 °F 74% 29.88 in 0.8 mi West 15.0 mph 25.3 mph 0.00 in Snow Light Snow
5:53 PM 19.9 °F 4.8 °F 12.0 °F 71% 29.93 in 1.0 mi West 18.4 mph 24.2 mph 0.00 in Snow Light Snow
6:19 PM 19.4 °F 5.0 °F 12.2 °F 74% 29.91 in 0.5 mi West 16.1 mph 25.3 mph 0.00 in Snow Snow
6:31 PM 19.4 °F 6.0 °F 12.2 °F 74% 29.92 in 0.8 mi West 13.8 mph 21.9 mph 0.00 in Snow Light Snow
7:32 PM 19.4 °F 6.6 °F 12.2 °F 74% 29.94 in 0.8 mi WNW 12.7 mph 27.6 mph 0.00 in Snow Light Snow
7:40 PM 19.4 °F 6.0 °F 12.2 °F 74% 29.94 in 1.0 mi WNW 13.8 mph 24.2 mph 0.00 in Snow Light Snow
7:53 PM 19.0 °F 5.6 °F 12.9 °F 77% 29.99 in 0.8 mi WNW 13.8 mph 25.3 mph 0.00 in Snow Light Snow
8:04 PM 19.4 °F 6.6 °F 12.2 °F 74% 29.95 in 1.5 mi WNW 12.7 mph 24.2 mph 0.00 in Snow Light Snow
8:17 PM 19.4 °F 6.0 °F 12.2 °F 74% 29.96 in 2.0 mi WNW 13.8 mph 18.4 mph 0.00 in Snow Light Snow
8:24 PM 19.4 °F 6.0 °F 10.4 °F 68% 29.96 in 3.0 mi WNW 13.8 mph 24.2 mph 0.00 in Snow Light Snow
8:48 PM 19.4 °F 7.2 °F 10.4 °F 68% 29.97 in 3.0 mi WNW 11.5 mph 24.2 mph 0.00 in Snow Light Snow
8:53 PM 19.9 °F 6.7 °F 10.9 °F 68% 30.00 in 2.5 mi WNW 13.8 mph 24.2 mph 0.00 in Snow Light Snow
9:00 PM 19.4 °F 8.6 °F 12.2 °F 74% 29.97 in 1.2 mi WNW 9.2 mph 20.7 mph 0.00 in Snow Light Snow
9:17 PM 19.4 °F 6.0 °F 12.2 °F 74% 29.98 in 1.5 mi WNW 13.8 mph 23.0 mph 0.00 in Snow Light Snow
9:25 PM 19.4 °F 6.6 °F 12.2 °F 74% 29.99 in 2.0 mi WNW 12.7 mph 21.9 mph 0.00 in Snow Light Snow
9:28 PM 19.4 °F 7.9 °F 12.2 °F 74% 29.99 in 3.0 mi WNW 10.4 mph 20.7 mph 0.00 in Snow Light Snow
9:53 PM 19.0 °F 5.0 °F 10.9 °F 71% 30.03 in 2.5 mi WNW 15.0 mph 24.2 mph 0.00 in Snow Light Snow
10:20 PM 19.4 °F 7.9 °F 10.4 °F 68% 30.01 in 3.0 mi WNW 10.4 mph 25.3 mph 0.00 in Snow Light Snow
10:30 PM 19.4 °F 7.9 °F 10.4 °F 68% 30.01 in 2.0 mi WNW 10.4 mph 23.0 mph 0.00 in Snow Light Snow
10:37 PM 19.4 °F 6.6 °F 12.2 °F 74% 30.00 in 1.8 mi WNW 12.7 mph 18.4 mph 0.00 in Snow Light Snow
10:49 PM 19.4 °F 7.2 °F 10.4 °F 68% 30.00 in 2.5 mi WNW 11.5 mph 19.6 mph 0.00 in Snow Light Snow
10:53 PM 19.0 °F 5.6 °F 10.9 °F 71% 30.04 in 2.5 mi WNW 13.8 mph 19.6 mph 0.00 in Snow Light Snow
10:55 PM 19.4 °F 8.6 °F 10.4 °F 68% 30.00 in 2.5 mi WNW 9.2 mph 19.6 mph 0.00 in Snow Light Snow
10:57 PM 19.4 °F 7.2 °F 10.4 °F 68% 30.00 in 3.0 mi WNW 11.5 mph 18.4 mph 0.00 in Snow Light Snow
11:39 PM 19.4 °F 5.5 °F 10.4 °F 68% 30.01 in 2.0 mi WNW 15.0 mph 20.7 mph 0.00 in Snow Light Snow
11:47 PM 19.4 °F 6.6 °F 10.4 °F 68% 30.01 in 3.0 mi WNW 12.7 mph 20.7 mph 0.00 in Snow Light Snow
11:53 PM 19.0 °F 7.5 °F 10.0 °F 68% 30.04 in 3.0 mi WNW 10.4 mph 21.9 mph 0.00 in Snow Light Snow